createdAt,value
2023-05-20T00:01:52.142Z,3.33
2023-05-20T00:04:18.979Z,2.95
2023-05-20T00:06:45.873Z,3.28
2023-05-20T00:09:12.641Z,3.05
2023-05-20T00:11:39.307Z,3.47
2023-05-20T00:14:06.376Z,2.88
2023-05-20T00:16:33.254Z,3.30
2023-05-20T00:19:00.302Z,3.17
2023-05-20T00:21:27.199Z,3.00
2023-05-20T00:23:53.998Z,3.05
2023-05-20T00:26:21.552Z,2.40
2023-05-20T00:28:48.375Z,3.88
2023-05-20T00:31:15.144Z,2.65
2023-05-20T00:33:41.907Z,2.28
2023-05-20T00:36:08.890Z,2.88
2023-05-20T00:38:35.753Z,3.22
2023-05-20T00:41:02.475Z,4.15
2023-05-20T00:43:29.145Z,2.83
2023-05-20T00:45:55.999Z,3.13
2023-05-20T00:48:22.980Z,2.92
2023-05-20T00:50:50.641Z,2.85
2023-05-20T00:53:21.523Z,2.75
2023-05-20T00:55:48.526Z,2.30
2023-05-20T00:58:15.519Z,2.55
2023-05-20T01:00:43.142Z,3.33
2023-05-20T01:03:10.190Z,3.03
2023-05-20T01:05:38.165Z,2.40
2023-05-20T01:08:07.138Z,2.83
2023-05-20T01:10:37.548Z,3.00
2023-05-20T01:13:08.810Z,3.03
2023-05-20T01:15:36.804Z,2.30
2023-05-20T01:18:06.520Z,2.97
2023-05-20T01:20:33.788Z,3.47
2023-05-20T01:23:00.521Z,3.40
2023-05-20T01:25:27.453Z,2.45
2023-05-20T01:27:56.511Z,3.17
2023-05-20T01:30:28.317Z,2.45
2023-05-20T01:33:00.144Z,2.58
2023-05-20T01:35:27.799Z,2.47
2023-05-20T01:37:56.476Z,2.50
2023-05-20T01:40:24.719Z,2.97
2023-05-20T01:42:55.287Z,2.50
2023-05-20T01:45:24.667Z,3.00
2023-05-20T01:47:51.600Z,2.45
2023-05-20T01:50:18.364Z,2.30
2023-05-20T01:52:45.141Z,3.15
2023-05-20T01:55:11.896Z,2.38
2023-05-20T01:57:38.557Z,2.13
2023-05-20T02:00:07.023Z,2.40
2023-05-20T02:02:33.893Z,2.60
2023-05-20T02:05:00.849Z,2.35
2023-05-20T02:07:27.511Z,2.50
2023-05-20T02:09:54.233Z,2.92
2023-05-20T02:12:20.992Z,2.60
2023-05-20T02:14:48.184Z,2.80
2023-05-20T02:17:17.936Z,2.92
2023-05-20T02:19:46.066Z,2.60
2023-05-20T02:22:13.498Z,3.22
2023-05-20T02:24:40.640Z,2.10
2023-05-20T02:27:07.643Z,2.80
2023-05-20T02:29:34.506Z,2.38
2023-05-20T02:32:01.354Z,2.78
2023-05-20T02:34:28.345Z,2.60
2023-05-20T02:36:55.012Z,2.75
2023-05-20T02:39:21.722Z,1.88
2023-05-20T02:41:48.634Z,2.15
2023-05-20T02:44:15.586Z,2.35
2023-05-20T02:46:42.478Z,2.42
2023-05-20T02:49:09.210Z,2.33
2023-05-20T02:51:36.733Z,2.20
2023-05-20T02:54:03.863Z,2.15
2023-05-20T02:56:30.537Z,2.92
2023-05-20T02:58:57.259Z,2.90
2023-05-20T03:01:24.438Z,2.58
2023-05-20T03:03:51.450Z,2.47
2023-05-20T03:06:18.282Z,3.08
2023-05-20T03:08:44.968Z,2.30
2023-05-20T03:11:11.964Z,2.33
2023-05-20T03:13:38.707Z,2.00
2023-05-20T03:16:05.658Z,2.55
2023-05-20T03:18:32.382Z,2.55
2023-05-20T03:20:59.096Z,2.63
2023-05-20T03:23:26.068Z,2.40
2023-05-20T03:25:52.847Z,2.38
2023-05-20T03:28:19.576Z,2.45
2023-05-20T03:30:46.469Z,2.10
2023-05-20T03:33:13.253Z,3.10
2023-05-20T03:35:39.923Z,2.65
2023-05-20T03:38:06.753Z,3.03
2023-05-20T03:40:33.610Z,3.38
2023-05-20T03:43:00.452Z,2.95
2023-05-20T03:45:27.176Z,3.05
2023-05-20T03:47:53.905Z,3.00
2023-05-20T03:50:20.632Z,3.10
2023-05-20T03:52:47.436Z,3.03
2023-05-20T03:55:14.155Z,3.50
2023-05-20T03:57:40.872Z,3.53
2023-05-20T04:00:14.627Z,5.13
2023-05-20T04:02:41.781Z,4.97
2023-05-20T04:05:10.332Z,3.88
2023-05-20T04:07:37.133Z,5.03
2023-05-20T04:10:04.899Z,4.35
2023-05-20T04:12:32.565Z,4.00
2023-05-20T04:15:02.397Z,4.10
2023-05-20T04:17:30.321Z,5.07
2023-05-20T04:20:00.129Z,5.28
2023-05-20T04:22:27.533Z,5.28
2023-05-20T04:24:54.372Z,4.85
2023-05-20T04:27:21.723Z,4.28
2023-05-20T04:29:48.658Z,3.17
2023-05-20T04:32:18.850Z,5.35
2023-05-20T04:34:46.421Z,5.20
2023-05-20T04:37:14.003Z,6.63
2023-05-20T04:39:40.785Z,4.32
2023-05-20T04:42:07.524Z,4.53
2023-05-20T04:44:34.546Z,3.80
2023-05-20T04:47:01.240Z,5.13
2023-05-20T04:49:29.996Z,4.57
2023-05-20T04:51:56.787Z,5.10
2023-05-20T04:54:23.477Z,3.90
2023-05-20T04:56:51.094Z,3.92
2023-05-20T04:59:18.135Z,4.82
2023-05-20T05:01:44.940Z,3.70
2023-05-20T05:04:11.753Z,3.80
2023-05-20T05:06:38.552Z,3.17
2023-05-20T05:09:05.390Z,5.97
2023-05-20T05:11:32.069Z,4.57
2023-05-20T05:13:58.785Z,4.50
2023-05-20T05:16:25.699Z,3.60
2023-05-20T05:18:52.496Z,4.38
2023-05-20T05:21:19.219Z,5.65
2023-05-20T05:23:46.105Z,4.28
2023-05-20T05:26:12.797Z,4.90
2023-05-20T05:28:42.667Z,4.10
2023-05-20T05:31:09.698Z,4.65
2023-05-20T05:33:36.471Z,5.82
2023-05-20T05:36:05.012Z,5.55
2023-05-20T05:38:31.717Z,6.50
2023-05-20T05:40:58.357Z,6.25
2023-05-20T05:43:25.129Z,4.80
2023-05-20T05:45:51.872Z,4.97
2023-05-20T05:48:18.634Z,5.78
2023-05-20T05:50:46.453Z,5.60
2023-05-20T05:53:13.386Z,5.00
2023-05-20T05:55:40.182Z,3.90
2023-05-20T05:58:07.166Z,4.65
2023-05-20T06:00:34.250Z,5.10
2023-05-20T06:03:01.553Z,5.15
2023-05-20T06:05:29.797Z,4.85
2023-05-20T06:07:56.752Z,5.05
2023-05-20T06:10:23.862Z,4.70
2023-05-20T06:12:50.687Z,4.60
2023-05-20T06:15:17.438Z,5.22
2023-05-20T06:17:44.376Z,4.15
2023-05-20T06:20:11.810Z,4.15
2023-05-20T06:22:38.562Z,3.58
2023-05-20T06:25:06.384Z,4.30
2023-05-20T06:27:33.445Z,4.78
2023-05-20T06:30:00.290Z,5.50
2023-05-20T06:32:27.713Z,4.97
2023-05-20T06:34:54.444Z,4.65
2023-05-20T06:37:24.414Z,4.45
2023-05-20T06:39:54.072Z,4.10
2023-05-20T06:42:21.657Z,4.18
2023-05-20T06:44:48.455Z,4.82
2023-05-20T06:47:16.816Z,4.88
2023-05-20T06:49:47.652Z,4.00
2023-05-20T06:52:14.658Z,3.47
2023-05-20T06:54:41.825Z,3.80
2023-05-20T06:57:09.240Z,3.90
2023-05-20T06:59:36.864Z,4.28
2023-05-20T07:02:04.745Z,4.53
2023-05-20T07:04:31.527Z,3.83
2023-05-20T07:06:58.184Z,3.30
2023-05-20T07:09:24.896Z,3.95
2023-05-20T07:11:51.799Z,3.35
2023-05-20T07:14:18.575Z,4.10
2023-05-20T07:16:45.441Z,3.30
2023-05-20T07:19:12.260Z,4.47
2023-05-20T07:21:39.126Z,4.03
2023-05-20T07:24:06.008Z,4.60
2023-05-20T07:26:36.423Z,4.20
2023-05-20T07:29:04.527Z,3.78
2023-05-20T07:31:31.596Z,4.93
2023-05-20T07:33:58.658Z,4.30
2023-05-20T07:36:27.735Z,3.42
2023-05-20T07:39:02.460Z,4.35
2023-05-20T07:41:32.121Z,4.70
2023-05-20T07:43:58.784Z,3.95
2023-05-20T07:46:25.566Z,3.60
2023-05-20T07:48:52.382Z,4.35
2023-05-20T07:51:19.138Z,4.07
2023-05-20T07:53:45.895Z,3.85
2023-05-20T07:56:12.669Z,4.28
2023-05-20T07:58:42.697Z,6.05
2023-05-20T08:01:10.299Z,4.07
2023-05-20T08:03:37.113Z,5.50
2023-05-20T08:06:04.180Z,4.82
2023-05-20T08:08:30.896Z,4.28
2023-05-20T08:10:57.575Z,4.30
2023-05-20T08:13:25.644Z,4.22
2023-05-20T08:15:54.772Z,4.43
2023-05-20T08:18:21.553Z,4.47
2023-05-20T08:20:48.573Z,4.05
2023-05-20T08:23:15.241Z,3.67
2023-05-20T08:25:41.948Z,4.85
2023-05-20T08:28:08.840Z,3.53
2023-05-20T08:30:35.551Z,4.97
2023-05-20T08:33:02.577Z,4.15
2023-05-20T08:35:29.421Z,3.53
2023-05-20T08:37:56.278Z,5.22
2023-05-20T08:40:23.096Z,4.68
2023-05-20T08:42:53.002Z,4.70
2023-05-20T08:45:21.750Z,4.97
2023-05-20T08:47:48.591Z,4.38
2023-05-20T08:50:17.113Z,5.40
2023-05-20T08:52:46.439Z,4.82
2023-05-20T08:55:23.029Z,5.32
2023-05-20T08:57:51.496Z,4.07
2023-05-20T09:00:20.168Z,5.13
2023-05-20T09:02:47.431Z,5.60
2023-05-20T09:05:14.768Z,6.60
2023-05-20T09:07:43.328Z,5.78
2023-05-20T09:10:10.917Z,5.63
2023-05-20T09:12:38.742Z,5.78
2023-05-20T09:15:05.898Z,5.22
2023-05-20T09:17:37.313Z,5.75
2023-05-20T09:20:09.141Z,7.55
2023-05-20T09:22:35.846Z,4.82
2023-05-20T09:25:02.627Z,4.95
2023-05-20T09:27:29.300Z,4.97
2023-05-20T09:29:55.947Z,5.68
2023-05-20T09:32:28.473Z,6.10
2023-05-20T09:34:55.265Z,5.13
2023-05-20T09:37:22.734Z,5.30
2023-05-20T09:39:59.728Z,4.75
2023-05-20T09:42:42.456Z,5.78
2023-05-20T09:45:09.651Z,4.65
2023-05-20T09:47:42.695Z,5.25
2023-05-20T09:50:10.358Z,4.80
2023-05-20T09:52:38.749Z,5.65
2023-05-20T09:55:10.551Z,5.50
2023-05-20T09:57:38.093Z,7.35
2023-05-20T10:00:06.446Z,4.90
2023-05-20T10:02:36.707Z,5.05
2023-05-20T10:05:08.015Z,4.50
2023-05-20T10:07:44.171Z,5.85
2023-05-20T10:10:20.488Z,5.55
2023-05-20T10:13:03.652Z,4.68
2023-05-20T10:16:08.921Z,5.13
2023-05-20T10:18:50.842Z,5.40
2023-05-20T10:21:19.268Z,4.78
2023-05-20T10:23:46.098Z,6.05
2023-05-20T10:26:12.844Z,4.43
2023-05-20T10:28:41.790Z,5.13
2023-05-20T10:31:21.794Z,4.55
2023-05-20T10:33:49.734Z,3.28
2023-05-20T10:36:30.825Z,5.60
2023-05-20T10:39:00.840Z,4.15
2023-05-20T10:41:44.672Z,4.75
2023-05-20T10:44:11.752Z,3.80
2023-05-20T10:46:59.940Z,4.43
2023-05-20T10:49:34.717Z,5.63
2023-05-20T10:52:01.505Z,4.80
2023-05-20T10:54:29.502Z,5.22
2023-05-20T10:56:56.442Z,5.00
2023-05-20T10:59:23.393Z,5.35
2023-05-20T11:01:51.186Z,4.93
2023-05-20T11:04:19.963Z,5.18
2023-05-20T11:06:54.316Z,4.40
2023-05-20T11:09:22.377Z,4.88
2023-05-20T11:11:54.446Z,4.80
2023-05-20T11:14:22.200Z,4.53
2023-05-20T11:16:53.607Z,4.60
2023-05-20T11:19:21.587Z,4.78
2023-05-20T11:21:49.214Z,4.40
2023-05-20T11:24:27.056Z,4.65
2023-05-20T11:26:57.588Z,4.57
2023-05-20T11:29:26.884Z,4.38
2023-05-20T11:31:53.759Z,4.97
2023-05-20T11:34:25.979Z,4.18
2023-05-20T11:39:27.610Z,4.38
2023-05-20T11:41:54.458Z,4.38
2023-05-20T11:44:21.618Z,5.18
2023-05-20T11:46:48.714Z,4.13
2023-05-20T11:49:16.782Z,4.68
2023-05-20T11:51:44.416Z,4.82
2023-05-20T11:54:11.452Z,4.97
2023-05-20T11:56:39.244Z,6.03
2023-05-20T11:59:07.230Z,4.88
2023-05-20T12:01:43.532Z,5.05
2023-05-20T12:04:12.106Z,5.43
2023-05-20T12:06:39.828Z,5.38
2023-05-20T12:09:08.630Z,5.53
2023-05-20T12:11:37.460Z,5.22
2023-05-20T12:14:04.713Z,4.40
2023-05-20T12:16:33.604Z,6.47
2023-05-20T12:19:01.299Z,4.63
2023-05-20T12:21:31.618Z,6.40
2023-05-20T12:24:01.846Z,5.65
2023-05-20T12:26:29.856Z,5.07
2023-05-20T12:28:57.719Z,5.65
2023-05-20T12:31:25.394Z,5.63
2023-05-20T12:33:52.332Z,4.80
2023-05-20T12:36:19.876Z,6.50
2023-05-20T12:38:47.202Z,5.15
2023-05-20T12:41:14.153Z,6.38
2023-05-20T12:43:40.873Z,6.45
2023-05-20T12:46:07.677Z,7.20
2023-05-20T12:48:34.425Z,5.80
2023-05-20T12:51:01.569Z,5.80
2023-05-20T12:53:31.966Z,6.72
2023-05-20T12:55:58.798Z,5.32
2023-05-20T12:58:25.462Z,5.85
2023-05-20T13:00:52.335Z,5.38
2023-05-20T13:03:19.297Z,5.63
2023-05-20T13:05:46.241Z,5.20
2023-05-20T13:08:14.997Z,5.70
2023-05-20T13:10:42.345Z,5.70
2023-05-20T13:13:09.163Z,7.40
2023-05-20T13:15:36.972Z,5.72
2023-05-20T13:18:06.066Z,6.90
2023-05-20T13:20:33.041Z,6.50
2023-05-20T13:22:59.947Z,4.85
2023-05-20T13:25:26.789Z,5.72
2023-05-20T13:27:53.465Z,5.95
2023-05-20T13:30:20.278Z,6.88
2023-05-20T13:32:47.045Z,6.47
2023-05-20T13:35:14.742Z,6.25
2023-05-20T13:37:41.742Z,7.05
2023-05-20T13:40:09.362Z,6.03
2023-05-20T13:42:36.171Z,6.25
2023-05-20T13:45:03.002Z,6.13
2023-05-20T13:47:29.821Z,6.85
2023-05-20T13:49:56.931Z,4.90
2023-05-20T13:52:23.761Z,6.75
2023-05-20T13:54:50.478Z,7.63
2023-05-20T13:57:17.310Z,5.20
2023-05-20T13:59:44.440Z,6.38
2023-05-20T14:02:11.673Z,5.80
2023-05-20T14:04:40.278Z,5.47
2023-05-20T14:07:09.618Z,5.60
2023-05-20T14:09:36.858Z,5.88
2023-05-20T14:12:04.220Z,6.65
2023-05-20T14:14:31.043Z,5.85
2023-05-20T14:16:58.013Z,5.50
2023-05-20T14:19:25.090Z,6.10
2023-05-20T14:21:51.916Z,5.90
2023-05-20T14:24:18.567Z,5.15
2023-05-20T14:26:45.239Z,6.63
2023-05-20T14:29:12.026Z,6.15
2023-05-20T14:31:39.394Z,6.28
2023-05-20T14:34:07.397Z,8.60
2023-05-20T14:36:34.397Z,7.07
2023-05-20T14:39:01.080Z,7.50
2023-05-20T14:41:27.796Z,8.75
2023-05-20T14:43:54.560Z,8.35
2023-05-20T14:46:21.733Z,8.23
2023-05-20T14:48:48.429Z,8.25
2023-05-20T14:51:15.179Z,8.00
2023-05-20T14:53:42.279Z,6.03
2023-05-20T14:56:08.972Z,6.72
2023-05-20T14:58:36.099Z,6.38
2023-05-20T15:01:02.901Z,7.38
2023-05-20T15:03:30.042Z,7.20
2023-05-20T15:05:56.921Z,6.13
2023-05-20T15:08:23.593Z,8.60
2023-05-20T15:10:50.797Z,7.30
2023-05-20T15:13:17.574Z,6.82
2023-05-20T15:15:44.896Z,5.90
2023-05-20T15:18:11.796Z,6.18
2023-05-20T15:20:38.565Z,6.78
2023-05-20T15:23:05.428Z,7.75
2023-05-20T15:25:32.129Z,8.73
2023-05-20T15:27:58.864Z,6.82
2023-05-20T15:30:25.674Z,7.80
2023-05-20T15:32:52.447Z,6.03
2023-05-20T15:35:19.653Z,6.95
2023-05-20T15:37:46.333Z,7.72
2023-05-20T15:40:13.112Z,5.05
2023-05-20T15:42:39.842Z,7.45
2023-05-20T15:45:07.415Z,5.25
2023-05-20T15:47:34.307Z,5.43
2023-05-20T15:50:02.964Z,4.82
2023-05-20T15:52:29.692Z,5.22
2023-05-20T15:54:56.828Z,5.10
2023-05-20T15:57:23.590Z,7.30
2023-05-20T15:59:50.265Z,8.75
2023-05-20T16:02:17.045Z,5.53
2023-05-20T16:04:43.780Z,6.35
2023-05-20T16:07:10.657Z,6.75
2023-05-20T16:09:37.354Z,7.05
2023-05-20T16:12:04.674Z,6.90
2023-05-20T16:14:31.337Z,6.50
2023-05-20T16:16:58.108Z,8.07
2023-05-20T16:19:24.911Z,5.50
2023-05-20T16:21:51.682Z,6.30
2023-05-20T16:24:18.459Z,7.70
2023-05-20T16:26:45.268Z,8.90
2023-05-20T16:29:12.078Z,7.50
2023-05-20T16:31:39.551Z,6.25
2023-05-20T16:34:07.288Z,6.93
2023-05-20T16:36:34.729Z,7.50
2023-05-20T16:39:01.637Z,6.80
2023-05-20T16:41:28.486Z,7.05
2023-05-20T16:43:55.144Z,5.85
2023-05-20T16:46:22.023Z,5.32
2023-05-20T16:48:48.786Z,8.30
2023-05-20T16:51:15.470Z,7.45
2023-05-20T16:53:42.273Z,7.93
2023-05-20T16:56:09.144Z,7.80
2023-05-20T16:58:35.855Z,7.53
2023-05-20T17:01:02.676Z,6.45
2023-05-20T17:03:29.427Z,6.75
2023-05-20T17:05:56.150Z,6.88
2023-05-20T17:08:23.018Z,6.80
2023-05-20T17:10:51.351Z,8.00
2023-05-20T17:13:19.972Z,8.30
2023-05-20T17:15:46.677Z,7.72
2023-05-20T17:18:13.513Z,9.90
2023-05-20T17:20:40.266Z,9.65
2023-05-20T17:23:07.063Z,8.48
2023-05-20T17:25:33.864Z,7.65
2023-05-20T17:28:00.661Z,8.10
2023-05-20T17:30:27.469Z,9.60
2023-05-20T17:32:55.117Z,10.43
2023-05-20T17:35:25.567Z,7.38
2023-05-20T17:37:53.651Z,8.35
2023-05-20T17:40:20.967Z,7.88
2023-05-20T17:42:50.315Z,8.10
2023-05-20T17:45:17.097Z,8.35
2023-05-20T17:47:43.848Z,9.40
2023-05-20T17:50:11.193Z,9.95
2023-05-20T17:52:37.938Z,9.48
2023-05-20T17:55:05.031Z,8.10
2023-05-20T17:57:31.742Z,8.27
2023-05-20T17:59:58.425Z,9.73
2023-05-20T18:02:25.224Z,8.50
2023-05-20T18:04:52.359Z,8.32
2023-05-20T18:07:19.205Z,8.15
2023-05-20T18:09:46.072Z,10.52
2023-05-20T18:12:12.770Z,8.18
2023-05-20T18:14:39.503Z,8.18
2023-05-20T18:17:06.227Z,8.40
2023-05-20T18:19:33.890Z,9.73
2023-05-20T18:22:01.156Z,7.53
2023-05-20T18:24:27.840Z,7.78
2023-05-20T18:26:54.545Z,8.30
2023-05-20T18:29:23.400Z,8.55
2023-05-20T18:31:50.286Z,7.47
2023-05-20T18:34:17.022Z,7.70
2023-05-20T18:36:43.805Z,7.43
2023-05-20T18:39:14.097Z,9.00
2023-05-20T18:44:13.508Z,8.35
2023-05-20T18:46:40.264Z,7.30
2023-05-20T18:49:06.947Z,7.85
2023-05-20T18:51:33.922Z,9.60
2023-05-20T18:54:00.700Z,8.25
2023-05-20T18:56:27.642Z,9.93
2023-05-20T18:58:54.463Z,6.93
2023-05-20T19:01:22.041Z,6.35
2023-05-20T19:03:48.754Z,9.82
2023-05-20T19:06:16.612Z,8.45
2023-05-20T19:08:43.992Z,7.82
2023-05-20T19:11:11.113Z,6.50
2023-05-20T19:13:37.881Z,5.82
2023-05-20T19:16:04.812Z,6.80
2023-05-20T19:18:31.626Z,6.47
2023-05-20T19:20:58.316Z,5.85
2023-05-20T19:23:25.009Z,7.28
2023-05-20T19:25:51.736Z,8.18
2023-05-20T19:28:18.685Z,5.88
2023-05-20T19:30:45.664Z,6.28
2023-05-20T19:33:12.446Z,6.97
2023-05-20T19:35:40.426Z,6.80
2023-05-20T19:38:07.370Z,5.50
2023-05-20T19:40:35.360Z,6.28
2023-05-20T19:43:04.953Z,5.95
2023-05-20T19:45:34.736Z,6.35
2023-05-20T19:48:02.585Z,5.50
2023-05-20T19:50:29.386Z,5.93
2023-05-20T19:52:56.319Z,4.80
2023-05-20T19:55:23.122Z,5.97
2023-05-20T19:57:53.410Z,5.53
2023-05-20T20:00:23.549Z,6.85
2023-05-20T20:02:50.407Z,5.85
2023-05-20T20:05:17.309Z,5.97
2023-05-20T20:07:44.032Z,5.63
2023-05-20T20:10:11.132Z,5.22
2023-05-20T20:12:37.814Z,6.30
2023-05-20T20:15:05.108Z,7.20
2023-05-20T20:17:33.908Z,5.32
2023-05-20T20:20:01.193Z,5.43
2023-05-20T20:22:28.089Z,5.00
2023-05-20T20:24:54.851Z,5.68
2023-05-20T20:27:23.804Z,6.10
2023-05-20T20:29:50.733Z,5.15
2023-05-20T20:32:17.527Z,6.60
2023-05-20T20:34:45.984Z,5.78
2023-05-20T20:37:15.069Z,5.53
2023-05-20T20:39:42.209Z,8.10
2023-05-20T20:42:09.002Z,6.38
2023-05-20T20:44:35.764Z,6.80
2023-05-20T20:47:04.261Z,6.93
2023-05-20T20:49:32.279Z,6.28
2023-05-20T20:51:59.226Z,6.63
2023-05-20T20:54:26.551Z,5.78
2023-05-20T20:56:56.758Z,7.80
2023-05-20T20:59:26.757Z,8.73
2023-05-20T21:01:54.186Z,7.72
2023-05-20T21:04:21.085Z,6.00
2023-05-20T21:06:47.918Z,5.53
2023-05-20T21:09:15.132Z,5.75
2023-05-20T21:11:42.406Z,6.85
2023-05-20T21:14:10.338Z,6.07
2023-05-20T21:16:37.882Z,6.38
2023-05-20T21:19:05.104Z,6.20
2023-05-20T21:21:32.467Z,7.80
2023-05-20T21:23:59.253Z,6.63
2023-05-20T21:26:26.672Z,6.00
2023-05-20T21:28:53.491Z,5.95
2023-05-20T21:31:20.324Z,6.75
2023-05-20T21:33:47.196Z,7.75
2023-05-20T21:36:13.949Z,5.72
2023-05-20T21:38:40.635Z,5.72
2023-05-20T21:41:07.940Z,6.72
2023-05-20T21:43:36.089Z,7.28
2023-05-20T21:46:03.253Z,6.43
2023-05-20T21:48:29.989Z,6.30
2023-05-20T21:50:56.745Z,7.35
2023-05-20T21:53:23.391Z,7.13
2023-05-20T21:55:50.160Z,6.07
2023-05-20T21:58:16.898Z,5.45
2023-05-20T22:00:43.624Z,6.28
2023-05-20T22:03:11.940Z,7.97
2023-05-20T22:05:38.782Z,5.03
2023-05-20T22:08:05.796Z,5.50
2023-05-20T22:10:34.210Z,7.05
2023-05-20T22:13:02.243Z,6.63
2023-05-20T22:15:29.170Z,7.72
2023-05-20T22:17:55.979Z,6.07
2023-05-20T22:20:22.891Z,6.65
2023-05-20T22:22:49.635Z,9.07
2023-05-20T22:25:17.407Z,5.78
2023-05-20T22:27:44.207Z,5.97
2023-05-20T22:30:12.369Z,6.43
2023-05-20T22:32:39.393Z,6.75
2023-05-20T22:35:06.860Z,7.97
2023-05-20T22:37:33.635Z,7.50
2023-05-20T22:40:00.681Z,6.03
2023-05-20T22:42:27.427Z,5.70
2023-05-20T22:44:54.078Z,5.22
2023-05-20T22:47:20.784Z,5.45
2023-05-20T22:49:47.514Z,5.97
2023-05-20T22:52:14.573Z,6.25
2023-05-20T22:54:41.331Z,6.25
2023-05-20T22:57:08.426Z,7.15
2023-05-20T22:59:36.692Z,5.35
2023-05-20T23:02:04.540Z,7.18
2023-05-20T23:04:31.379Z,5.95
2023-05-20T23:06:59.451Z,5.20
2023-05-20T23:09:26.533Z,6.38
2023-05-20T23:11:53.352Z,6.07
2023-05-20T23:14:20.259Z,6.05
2023-05-20T23:16:47.324Z,4.85
2023-05-20T23:19:14.307Z,5.88
2023-05-20T23:21:41.139Z,5.82
2023-05-20T23:24:07.865Z,5.15
2023-05-20T23:26:34.666Z,5.78
2023-05-20T23:29:01.637Z,4.78
2023-05-20T23:31:29.991Z,4.65
2023-05-20T23:33:59.903Z,4.93
2023-05-20T23:36:29.170Z,6.10
2023-05-20T23:38:56.492Z,5.80
2023-05-20T23:41:23.818Z,6.00
2023-05-20T23:43:50.875Z,5.35
2023-05-20T23:46:18.712Z,5.43
2023-05-20T23:48:48.359Z,5.03
2023-05-20T23:51:16.447Z,5.28
2023-05-20T23:53:43.865Z,5.55
2023-05-20T23:56:10.667Z,5.57
2023-05-20T23:58:37.442Z,5.60
